Time,TemperatureF,DewpointF,PressureIn,WindDirection,WindDirectionDegrees,WindSpeedMPH,WindSpeedGustMPH,Humidity,HourlyPrecipIn,Conditions,Clouds,dailyrainin,SoftwareType,DateUTC
2013-06-25 00:01:00,69.4,68.0,29.94,SSW,209,1.0,1.0,95,0.00,,,0.00,meteohub,2013-06-25 04:01:00,
2013-06-25 00:02:00,69.4,68.0,29.94,SW,214,1.0,1.0,95,0.00,,,0.00,meteohub,2013-06-25 04:02:00,
2013-06-25 00:07:00,69.1,67.6,29.93,SSW,204,1.0,1.0,95,0.00,,,0.00,meteohub,2013-06-25 04:07:00,
2013-06-25 00:12:00,69.1,67.8,29.93,SSE,167,0.0,1.0,96,0.00,,,0.00,meteohub,2013-06-25 04:12:00,
2013-06-25 00:17:00,69.3,68.0,29.92,SSE,166,0.0,1.0,96,0.00,,,0.00,meteohub,2013-06-25 04:17:00,
2013-06-25 00:22:00,69.3,68.0,29.93,SW,224,1.0,1.0,96,0.00,,,0.00,meteohub,2013-06-25 04:22:00,
2013-06-25 00:27:00,69.1,67.8,29.94,SW,227,1.0,3.0,96,0.00,,,0.00,meteohub,2013-06-25 04:27:00,
2013-06-25 00:32:00,68.7,67.5,29.94,SW,214,0.0,3.0,96,0.00,,,0.00,meteohub,2013-06-25 04:32:00,
2013-06-25 00:37:00,68.5,67.3,29.94,SW,219,0.0,3.0,96,0.00,,,0.00,meteohub,2013-06-25 04:37:00,
2013-06-25 00:42:00,68.4,67.1,29.94,SW,219,0.0,2.0,96,0.00,,,0.00,meteohub,2013-06-25 04:42:00,
2013-06-25 00:47:00,68.2,66.9,29.94,SSW,212,0.0,1.0,96,0.00,,,0.00,meteohub,2013-06-25 04:47:00,
2013-06-25 00:52:00,68.4,67.1,29.94,SW,214,0.0,0.0,96,0.00,,,0.00,meteohub,2013-06-25 04:52:00,
2013-06-25 00:57:00,68.4,67.1,29.94,SW,214,0.0,0.0,96,0.00,,,0.00,meteohub,2013-06-25 04:57:00,
2013-06-25 01:02:00,68.4,67.1,29.94,SSE,167,0.0,0.0,96,0.00,,,0.00,meteohub,2013-06-25 05:02:00,
2013-06-25 01:07:00,68.2,66.9,29.95,South,169,0.0,0.0,96,0.00,,,0.00,meteohub,2013-06-25 05:07:00,
2013-06-25 01:12:00,68.2,67.3,29.94,SSW,201,0.0,0.0,97,0.00,,,0.00,meteohub,2013-06-25 05:12:00,
2013-06-25 01:17:00,68.2,66.9,29.94,SSW,201,0.0,0.0,96,0.00,,,0.00,meteohub,2013-06-25 05:17:00,
2013-06-25 01:22:00,68.4,67.5,29.94,ESE,113,5.0,0.0,97,0.00,,,0.00,meteohub,2013-06-25 05:22:00,
2013-06-25 01:27:00,68.4,67.5,29.94,SSE,166,1.0,6.0,97,0.00,,,0.00,meteohub,2013-06-25 05:27:00,
2013-06-25 01:32:00,68.2,66.9,29.93,ESE,121,3.0,6.0,96,0.00,,,0.00,meteohub,2013-06-25 05:32:00,
2013-06-25 01:37:00,68.2,67.3,29.93,South,181,1.0,6.0,97,0.00,,,0.00,meteohub,2013-06-25 05:37:00,
2013-06-25 01:42:00,68.2,67.3,29.94,SSE,163,0.0,3.0,97,0.00,,,0.00,meteohub,2013-06-25 05:42:00,
2013-06-25 01:47:00,67.6,66.4,29.94,South,172,0.0,3.0,96,0.00,,,0.00,meteohub,2013-06-25 05:47:00,
2013-06-25 01:52:00,67.6,66.4,29.94,South,172,0.0,2.0,96,0.00,,,0.00,meteohub,2013-06-25 05:52:00,
2013-06-25 01:57:00,67.5,66.2,29.93,SSE,149,0.0,0.0,96,0.00,,,0.00,meteohub,2013-06-25 05:57:00,
2013-06-25 02:02:00,67.3,66.0,29.93,South,169,0.0,2.0,96,0.00,,,0.00,meteohub,2013-06-25 06:02:00,
2013-06-25 02:07:00,67.3,66.4,29.93,South,169,1.0,2.0,97,0.00,,,0.00,meteohub,2013-06-25 06:07:00,
2013-06-25 02:12:00,67.3,66.4,29.93,SSE,162,0.0,2.0,97,0.00,,,0.00,meteohub,2013-06-25 06:12:00,
2013-06-25 02:18:00,67.1,66.2,29.93,SSE,163,1.0,1.0,97,0.00,,,0.00,meteohub,2013-06-25 06:18:00,
2013-06-25 02:23:00,66.9,66.0,29.93,SSE,163,0.0,2.0,97,0.00,,,0.00,meteohub,2013-06-25 06:23:00,
2013-06-25 02:28:00,66.9,66.0,29.93,SSE,163,0.0,2.0,97,0.00,,,0.00,meteohub,2013-06-25 06:28:00,
2013-06-25 02:33:00,66.9,66.0,29.93,South,187,0.0,2.0,97,0.00,,,0.00,meteohub,2013-06-25 06:33:00,
2013-06-25 02:38:00,66.9,66.0,29.93,South,187,1.0,2.0,97,0.00,,,0.00,meteohub,2013-06-25 06:38:00,
2013-06-25 02:43:00,66.7,65.8,29.92,South,176,0.0,2.0,97,0.00,,,0.00,meteohub,2013-06-25 06:43:00,
2013-06-25 02:48:00,66.7,65.8,29.92,South,187,1.0,2.0,97,0.00,,,0.00,meteohub,2013-06-25 06:48:00,
2013-06-25 02:53:00,66.7,65.8,29.92,South,183,0.0,1.0,97,0.00,,,0.00,meteohub,2013-06-25 06:53:00,
2013-06-25 02:58:00,66.6,65.7,29.91,SSE,163,0.0,1.0,97,0.00,,,0.00,meteohub,2013-06-25 06:58:00,
2013-06-25 03:03:00,67.6,67.1,29.90,SSE,147,1.0,1.0,98,0.00,,,0.00,meteohub,2013-06-25 07:03:00,
2013-06-25 03:08:00,68.2,67.6,29.91,SE,138,0.0,3.0,98,0.00,,,0.00,meteohub,2013-06-25 07:08:00,
2013-06-25 03:13:00,68.4,67.8,29.91,SE,138,1.0,3.0,98,0.00,,,0.00,meteohub,2013-06-25 07:13:00,
2013-06-25 03:18:00,67.8,66.9,29.91,SSE,160,0.0,3.0,97,0.00,,,0.00,meteohub,2013-06-25 07:18:00,
2013-06-25 03:23:00,67.6,66.7,29.91,South,169,1.0,3.0,97,0.00,,,0.00,meteohub,2013-06-25 07:23:00,
2013-06-25 03:28:00,67.5,66.6,29.91,South,169,0.0,2.0,97,0.00,,,0.00,meteohub,2013-06-25 07:28:00,
2013-06-25 03:33:00,67.1,66.2,29.91,South,171,1.0,1.0,97,0.00,,,0.00,meteohub,2013-06-25 07:33:00,
2013-06-25 03:38:00,66.9,66.0,29.90,SSE,167,0.0,1.0,97,0.00,,,0.00,meteohub,2013-06-25 07:38:00,
2013-06-25 03:43:00,66.9,66.0,29.91,SSE,167,0.0,1.0,97,0.00,,,0.00,meteohub,2013-06-25 07:43:00,
2013-06-25 03:48:00,67.6,67.1,29.91,ESE,113,3.0,3.0,98,0.00,,,0.00,meteohub,2013-06-25 07:48:00,
2013-06-25 03:53:00,68.0,67.5,29.90,SSE,149,2.0,3.0,98,0.00,,,0.00,meteohub,2013-06-25 07:53:00,
2013-06-25 03:58:00,68.4,67.8,29.90,NE,34,3.0,5.0,98,0.00,,,0.00,meteohub,2013-06-25 07:58:00,
2013-06-25 04:03:00,68.2,67.3,29.91,East,87,3.0,6.0,97,0.00,,,0.00,meteohub,2013-06-25 08:03:00,
2013-06-25 04:08:00,68.2,67.3,29.91,North,354,1.0,6.0,97,0.00,,,0.00,meteohub,2013-06-25 08:08:00,
2013-06-25 04:13:00,67.8,66.9,29.91,NNE,18,0.0,6.0,97,0.00,,,0.00,meteohub,2013-06-25 08:13:00,
2013-06-25 04:18:00,67.5,66.2,29.91,NNE,12,1.0,5.0,96,0.00,,,0.00,meteohub,2013-06-25 08:18:00,
2013-06-25 04:23:00,67.5,66.6,29.92,SW,233,2.0,3.0,97,0.00,,,0.00,meteohub,2013-06-25 08:23:00,
2013-06-25 04:28:00,67.1,66.2,29.92,SW,235,1.0,2.0,97,0.00,,,0.00,meteohub,2013-06-25 08:28:00,
2013-06-25 04:33:00,66.9,66.0,29.92,SW,231,1.0,2.0,97,0.00,,,0.00,meteohub,2013-06-25 08:33:00,
2013-06-25 04:38:00,66.9,66.0,29.92,SW,231,0.0,2.0,97,0.00,,,0.00,meteohub,2013-06-25 08:38:00,
2013-06-25 04:43:00,66.9,66.0,29.92,SW,231,0.0,2.0,97,0.00,,,0.00,meteohub,2013-06-25 08:43:00,
2013-06-25 04:48:00,67.1,66.2,29.92,SW,226,0.0,2.0,97,0.00,,,0.00,meteohub,2013-06-25 08:48:00,
2013-06-25 04:53:00,67.1,66.2,29.92,SSE,164,0.0,1.0,97,0.00,,,0.00,meteohub,2013-06-25 08:53:00,
2013-06-25 04:58:00,67.1,66.2,29.92,SSE,163,0.0,1.0,97,0.00,,,0.00,meteohub,2013-06-25 08:58:00,
2013-06-25 05:03:00,66.9,66.0,29.92,SSE,164,0.0,1.0,97,0.00,,,0.00,meteohub,2013-06-25 09:03:00,
2013-06-25 05:08:00,67.1,66.2,29.92,SSE,164,0.0,1.0,97,0.00,,,0.00,meteohub,2013-06-25 09:08:00,
2013-06-25 05:13:00,66.9,66.0,29.92,SSE,163,0.0,1.0,97,0.00,,,0.00,meteohub,2013-06-25 09:13:00,
2013-06-25 05:18:00,66.9,66.0,29.92,SE,139,0.0,0.0,97,0.00,,,0.00,meteohub,2013-06-25 09:18:00,
2013-06-25 05:23:00,66.6,65.7,29.92,SE,138,0.0,1.0,97,0.00,,,0.00,meteohub,2013-06-25 09:23:00,
2013-06-25 05:28:00,66.6,65.7,29.92,SE,138,0.0,1.0,97,0.00,,,0.00,meteohub,2013-06-25 09:28:00,
2013-06-25 05:33:00,66.7,65.8,29.93,ESE,116,1.0,1.0,97,0.00,,,0.00,meteohub,2013-06-25 09:33:00,
2013-06-25 05:38:00,66.6,65.7,29.93,ESE,116,0.0,1.0,97,0.00,,,0.00,meteohub,2013-06-25 09:38:00,
2013-06-25 05:43:00,66.6,65.7,29.93,ESE,115,0.0,1.0,97,0.00,,,0.00,meteohub,2013-06-25 09:43:00,
2013-06-25 05:48:00,66.4,65.5,29.93,SE,132,1.0,1.0,97,0.00,,,0.00,meteohub,2013-06-25 09:48:00,
2013-06-25 05:53:00,66.4,65.5,29.93,SE,133,0.0,1.0,97,0.00,,,0.00,meteohub,2013-06-25 09:53:00,
2013-06-25 05:58:00,66.2,65.3,29.93,SE,132,1.0,1.0,97,0.00,,,0.00,meteohub,2013-06-25 09:58:00,
2013-06-25 06:03:00,66.0,65.1,29.93,SE,132,0.0,1.0,97,0.00,,,0.00,meteohub,2013-06-25 10:03:00,
2013-06-25 06:08:00,66.0,65.1,29.94,SE,133,0.0,1.0,97,0.00,,,0.00,meteohub,2013-06-25 10:08:00,
2013-06-25 06:14:00,66.0,65.1,29.94,East,82,0.0,1.0,97,0.00,,,0.00,meteohub,2013-06-25 10:14:00,
2013-06-25 06:19:00,65.8,64.9,29.94,East,82,0.0,2.0,97,0.00,,,0.00,meteohub,2013-06-25 10:19:00,
2013-06-25 06:24:00,65.7,64.8,29.94,East,82,0.0,2.0,97,0.00,,,0.00,meteohub,2013-06-25 10:24:00,
2013-06-25 06:29:00,65.5,64.6,29.94,East,82,0.0,2.0,97,0.00,,,0.00,meteohub,2013-06-25 10:29:00,
2013-06-25 06:34:00,65.5,64.6,29.94,South,172,1.0,0.0,97,0.00,,,0.00,meteohub,2013-06-25 10:34:00,
2013-06-25 06:39:00,65.5,64.6,29.94,South,172,1.0,1.0,97,0.00,,,0.00,meteohub,2013-06-25 10:39:00,
2013-06-25 06:44:00,65.1,64.2,29.94,South,172,0.0,1.0,97,0.00,,,0.00,meteohub,2013-06-25 10:44:00,
2013-06-25 06:49:00,65.1,64.2,29.94,South,173,0.0,1.0,97,0.00,,,0.00,meteohub,2013-06-25 10:49:00,
2013-06-25 06:54:00,65.1,64.6,29.94,South,172,0.0,1.0,98,0.00,,,0.00,meteohub,2013-06-25 10:54:00,
2013-06-25 06:59:00,65.3,64.8,29.94,South,172,0.0,1.0,98,0.00,,,0.00,meteohub,2013-06-25 10:59:00,
2013-06-25 07:04:00,65.5,64.9,29.94,South,173,0.0,0.0,98,0.00,,,0.00,meteohub,2013-06-25 11:04:00,
2013-06-25 07:09:00,65.5,64.9,29.94,South,173,0.0,0.0,98,0.00,,,0.00,meteohub,2013-06-25 11:09:00,
2013-06-25 07:14:00,65.8,65.3,29.94,SSE,155,0.0,0.0,98,0.00,,,0.00,meteohub,2013-06-25 11:14:00,
2013-06-25 07:19:00,65.8,65.3,29.94,SSE,156,0.0,0.0,98,0.00,,,0.00,meteohub,2013-06-25 11:19:00,
2013-06-25 07:24:00,66.0,65.5,29.94,SSW,203,0.0,0.0,98,0.00,,,0.00,meteohub,2013-06-25 11:24:00,
2013-06-25 07:29:00,66.0,65.5,29.94,SSW,212,0.0,0.0,98,0.00,,,0.00,meteohub,2013-06-25 11:29:00,
2013-06-25 07:34:00,66.2,65.7,29.94,SSW,205,0.0,0.0,98,0.00,,,0.00,meteohub,2013-06-25 11:34:00,
2013-06-25 07:39:00,66.6,66.0,29.94,SSW,206,0.0,0.0,98,0.00,,,0.00,meteohub,2013-06-25 11:39:00,
2013-06-25 07:44:00,67.1,66.6,29.94,South,184,0.0,0.0,98,0.00,,,0.00,meteohub,2013-06-25 11:44:00,
2013-06-25 07:49:00,67.3,66.7,29.94,South,184,0.0,0.0,98,0.00,,,0.00,meteohub,2013-06-25 11:49:00,
2013-06-25 07:54:00,67.5,66.9,29.94,East,88,0.0,0.0,98,0.00,,,0.00,meteohub,2013-06-25 11:54:00,
2013-06-25 07:59:00,67.6,67.1,29.94,East,87,0.0,0.0,98,0.00,,,0.00,meteohub,2013-06-25 11:59:00,
2013-06-25 08:04:00,68.2,67.6,29.94,East,87,0.0,0.0,98,0.00,,,0.00,meteohub,2013-06-25 12:04:00,
2013-06-25 08:09:00,68.7,68.2,29.94,East,87,0.0,0.0,98,0.00,,,0.00,meteohub,2013-06-25 12:09:00,
2013-06-25 08:14:00,69.6,69.1,29.94,East,89,0.0,0.0,98,0.00,,,0.00,meteohub,2013-06-25 12:14:00,
2013-06-25 08:19:00,70.5,70.0,29.93,East,89,0.0,0.0,98,0.00,,,0.00,meteohub,2013-06-25 12:19:00,
2013-06-25 08:24:00,71.4,70.9,29.93,East,89,0.0,0.0,98,0.00,,,0.00,meteohub,2013-06-25 12:24:00,
2013-06-25 08:29:00,72.5,71.6,29.93,East,89,0.0,0.0,97,0.00,,,0.00,meteohub,2013-06-25 12:29:00,
2013-06-25 08:34:00,73.2,72.0,29.93,East,89,0.0,0.0,96,0.00,,,0.00,meteohub,2013-06-25 12:34:00,
2013-06-25 08:39:00,73.9,71.8,29.93,West,267,0.0,1.0,93,0.00,,,0.00,meteohub,2013-06-25 12:39:00,
2013-06-25 08:44:00,74.5,71.4,29.92,SSE,163,1.0,2.0,90,0.00,,,0.00,meteohub,2013-06-25 12:44:00,
2013-06-25 08:49:00,75.4,72.0,29.92,SE,132,2.0,2.0,89,0.00,,,0.00,meteohub,2013-06-25 12:49:00,
2013-06-25 08:54:00,76.3,72.1,29.93,SE,124,0.0,2.0,87,0.00,,,0.00,meteohub,2013-06-25 12:54:00,
2013-06-25 08:59:00,76.8,71.6,29.93,NE,46,1.0,2.0,84,0.00,,,0.00,meteohub,2013-06-25 12:59:00,
2013-06-25 09:04:00,77.2,71.6,29.93,SSE,149,0.0,2.0,83,0.00,,,0.00,meteohub,2013-06-25 13:04:00,
2013-06-25 09:10:00,77.4,71.8,29.93,SSE,160,0.0,2.0,83,0.00,,,0.00,meteohub,2013-06-25 13:10:00,
2013-06-25 09:15:00,78.3,72.3,29.92,NE,52,1.0,3.0,82,0.00,,,0.00,meteohub,2013-06-25 13:15:00,
2013-06-25 09:20:00,79.3,72.3,29.92,NE,37,1.0,3.0,79,0.00,,,0.00,meteohub,2013-06-25 13:20:00,
2013-06-25 09:25:00,79.5,72.5,29.92,NE,47,0.0,3.0,79,0.00,,,0.00,meteohub,2013-06-25 13:25:00,
2013-06-25 09:30:00,80.4,72.9,29.92,East,100,1.0,3.0,78,0.00,,,0.00,meteohub,2013-06-25 13:30:00,
2013-06-25 09:35:00,80.1,72.5,29.92,SW,214,2.0,3.0,78,0.00,,,0.00,meteohub,2013-06-25 13:35:00,
2013-06-25 09:40:00,79.5,72.5,29.92,WNW,287,3.0,4.0,79,0.00,,,0.00,meteohub,2013-06-25 13:40:00,
2013-06-25 09:45:00,79.5,73.2,29.92,SSW,203,3.0,5.0,81,0.00,,,0.00,meteohub,2013-06-25 13:45:00,
2013-06-25 09:50:00,80.2,73.9,29.91,SSE,162,0.0,6.0,81,0.00,,,0.00,meteohub,2013-06-25 13:50:00,
2013-06-25 09:55:00,81.1,73.6,29.91,WSW,252,0.0,6.0,78,0.00,,,0.00,meteohub,2013-06-25 13:55:00,
2013-06-25 10:00:00,82.2,74.7,29.91,SE,131,1.0,6.0,78,0.00,,,0.00,meteohub,2013-06-25 14:00:00,
2013-06-25 10:05:00,83.1,74.3,29.91,WNW,284,0.0,4.0,75,0.00,,,0.00,meteohub,2013-06-25 14:05:00,
2013-06-25 10:10:00,83.1,73.9,29.91,SE,139,2.0,4.0,74,0.00,,,0.00,meteohub,2013-06-25 14:10:00,
2013-06-25 10:15:00,83.8,75.0,29.91,East,85,0.0,4.0,75,0.00,,,0.00,meteohub,2013-06-25 14:15:00,
2013-06-25 10:20:00,84.6,74.5,29.91,SSW,208,5.0,5.0,72,0.00,,,0.00,meteohub,2013-06-25 14:20:00,
2013-06-25 10:25:00,84.4,74.8,29.91,WNW,290,4.0,4.0,73,0.00,,,0.00,meteohub,2013-06-25 14:25:00,
2013-06-25 10:30:00,84.6,74.5,29.91,WSW,245,3.0,8.0,72,0.00,,,0.00,meteohub,2013-06-25 14:30:00,
2013-06-25 10:35:00,84.6,74.5,29.91,SW,233,2.0,8.0,72,0.00,,,0.00,meteohub,2013-06-25 14:35:00,
2013-06-25 10:40:00,84.7,74.3,29.91,WNW,284,4.0,5.0,71,0.00,,,0.00,meteohub,2013-06-25 14:40:00,
2013-06-25 10:45:00,84.7,74.3,29.90,SSW,210,3.0,7.0,71,0.00,,,0.00,meteohub,2013-06-25 14:45:00,
2013-06-25 10:50:00,84.6,74.5,29.90,SW,221,3.0,10.0,72,0.00,,,0.00,meteohub,2013-06-25 14:50:00,
2013-06-25 10:55:00,84.6,74.5,29.90,WNW,289,3.0,10.0,72,0.00,,,0.00,meteohub,2013-06-25 14:55:00,
2013-06-25 11:00:00,84.9,74.8,29.90,WSW,250,4.0,9.0,72,0.00,,,0.00,meteohub,2013-06-25 15:00:00,
2013-06-25 11:05:00,85.5,75.0,29.90,WNW,288,3.0,11.0,71,0.00,,,0.00,meteohub,2013-06-25 15:05:00,
2013-06-25 11:10:00,85.6,75.2,29.90,West,278,9.0,11.0,71,0.00,,,0.00,meteohub,2013-06-25 15:10:00,
2013-06-25 11:15:00,85.5,74.5,29.90,WSW,257,3.0,11.0,70,0.00,,,0.00,meteohub,2013-06-25 15:15:00,
2013-06-25 11:20:00,85.6,74.3,29.90,West,262,5.0,14.0,69,0.00,,,0.00,meteohub,2013-06-25 15:20:00,
2013-06-25 11:25:00,85.6,74.3,29.90,West,267,8.0,14.0,69,0.00,,,0.00,meteohub,2013-06-25 15:25:00,
2013-06-25 11:30:00,85.5,75.0,29.90,WSW,253,12.0,14.0,71,0.00,,,0.00,meteohub,2013-06-25 15:30:00,
2013-06-25 11:35:00,85.8,74.5,29.90,West,273,5.0,14.0,69,0.00,,,0.00,meteohub,2013-06-25 15:35:00,
2013-06-25 11:40:00,86.4,75.4,29.90,SSW,198,7.0,14.0,70,0.00,,,0.00,meteohub,2013-06-25 15:40:00,
2013-06-25 11:45:00,86.4,74.5,29.91,SW,219,7.0,14.0,68,0.00,,,0.00,meteohub,2013-06-25 15:45:00,
2013-06-25 11:50:00,86.7,74.8,29.91,NW,309,4.0,13.0,68,0.00,,,0.00,meteohub,2013-06-25 15:50:00,
2013-06-25 11:55:00,87.1,74.3,29.91,WSW,252,2.0,15.0,66,0.00,,,0.00,meteohub,2013-06-25 15:55:00,
2013-06-25 12:00:00,87.3,74.1,29.91,West,259,5.0,15.0,65,0.00,,,0.00,meteohub,2013-06-25 16:00:00,
2013-06-25 12:05:00,87.6,74.8,29.91,West,278,5.0,12.0,66,0.00,,,0.00,meteohub,2013-06-25 16:05:00,
2013-06-25 12:10:00,87.6,74.3,29.91,NW,308,4.0,12.0,65,0.00,,,0.00,meteohub,2013-06-25 16:10:00,
2013-06-25 12:11:00,87.6,74.3,29.91,NW,304,4.0,12.0,65,0.00,,,0.00,meteohub,2013-06-25 16:11:00,
2013-06-25 12:16:00,88.2,74.5,29.91,WNW,290,4.0,11.0,64,0.00,,,0.00,meteohub,2013-06-25 16:16:00,
2013-06-25 12:21:00,87.4,74.3,29.91,WSW,239,8.0,12.0,65,0.00,,,0.00,meteohub,2013-06-25 16:21:00,
2013-06-25 12:26:00,86.9,74.1,29.91,West,273,7.0,12.0,66,0.00,,,0.00,meteohub,2013-06-25 16:26:00,
2013-06-25 12:31:00,86.7,74.5,29.91,WNW,285,7.0,12.0,67,0.00,,,0.00,meteohub,2013-06-25 16:31:00,
2013-06-25 12:36:00,86.7,74.8,29.91,West,281,3.0,11.0,68,0.00,,,0.00,meteohub,2013-06-25 16:36:00,
2013-06-25 12:41:00,87.3,75.0,29.90,SW,214,7.0,10.0,67,0.00,,,0.00,meteohub,2013-06-25 16:41:00,
2013-06-25 12:46:00,87.3,74.5,29.90,West,265,7.0,11.0,66,0.00,,,0.00,meteohub,2013-06-25 16:46:00,
2013-06-25 12:51:00,87.3,74.5,29.90,WSW,245,12.0,12.0,66,0.00,,,0.00,meteohub,2013-06-25 16:51:00,
2013-06-25 12:56:00,87.3,74.5,29.90,WSW,243,5.0,13.0,66,0.00,,,0.00,meteohub,2013-06-25 16:56:00,
2013-06-25 13:01:00,87.6,75.4,29.90,WNW,290,8.0,13.0,67,0.00,,,0.00,meteohub,2013-06-25 17:01:00,
2013-06-25 13:06:00,87.6,74.3,29.90,West,260,8.0,13.0,65,0.00,,,0.00,meteohub,2013-06-25 17:06:00,
2013-06-25 13:11:00,87.3,75.0,29.90,WSW,238,3.0,12.0,67,0.00,,,0.00,meteohub,2013-06-25 17:11:00,
2013-06-25 13:16:00,87.4,75.2,29.90,WSW,255,3.0,12.0,67,0.00,,,0.00,meteohub,2013-06-25 17:16:00,
2013-06-25 13:21:00,87.6,74.8,29.89,WSW,238,9.0,12.0,66,0.00,,,0.00,meteohub,2013-06-25 17:21:00,
2013-06-25 13:26:00,88.0,75.6,29.89,SW,221,8.0,12.0,67,0.00,,,0.00,meteohub,2013-06-25 17:26:00,
2013-06-25 13:31:00,88.5,74.8,29.88,NW,306,3.0,12.0,64,0.00,,,0.00,meteohub,2013-06-25 17:31:00,
2013-06-25 13:36:00,88.3,74.1,29.88,WSW,239,2.0,12.0,63,0.00,,,0.00,meteohub,2013-06-25 17:36:00,
2013-06-25 13:41:00,88.3,73.6,29.89,West,260,7.0,14.0,62,0.00,,,0.00,meteohub,2013-06-25 17:41:00,
2013-06-25 13:46:00,88.3,74.1,29.88,WSW,237,3.0,14.0,63,0.00,,,0.00,meteohub,2013-06-25 17:46:00,
2013-06-25 13:51:00,88.2,74.8,29.88,NNW,336,3.0,14.0,65,0.00,,,0.00,meteohub,2013-06-25 17:51:00,
2013-06-25 13:56:00,88.3,74.7,29.88,SW,218,6.0,11.0,64,0.00,,,0.00,meteohub,2013-06-25 17:56:00,
2013-06-25 14:01:00,88.3,74.7,29.87,WNW,283,3.0,11.0,64,0.00,,,0.00,meteohub,2013-06-25 18:01:00,
2013-06-25 14:06:00,88.9,75.2,29.87,SW,233,4.0,11.0,64,0.00,,,0.00,meteohub,2013-06-25 18:06:00,
2013-06-25 14:11:00,88.5,74.8,29.87,South,177,5.0,10.0,64,0.00,,,0.00,meteohub,2013-06-25 18:11:00,
2013-06-25 14:16:00,89.2,75.0,29.87,SW,224,8.0,11.0,63,0.00,,,0.00,meteohub,2013-06-25 18:16:00,
2013-06-25 14:21:00,89.2,75.0,29.86,West,267,9.0,14.0,63,0.00,,,0.00,meteohub,2013-06-25 18:21:00,
2013-06-25 14:26:00,89.1,74.3,29.86,West,271,2.0,14.0,62,0.00,,,0.00,meteohub,2013-06-25 18:26:00,
2013-06-25 14:31:00,89.1,72.9,29.86,West,266,5.0,14.0,59,0.00,,,0.00,meteohub,2013-06-25 18:31:00,
2013-06-25 14:36:00,89.1,73.4,29.86,SW,219,3.0,12.0,60,0.00,,,0.00,meteohub,2013-06-25 18:36:00,
2013-06-25 14:42:00,88.5,73.4,29.86,West,276,5.0,13.0,61,0.00,,,0.00,meteohub,2013-06-25 18:42:00,
2013-06-25 14:47:00,88.7,74.5,29.85,WNW,289,5.0,13.0,63,0.00,,,0.00,meteohub,2013-06-25 18:47:00,
2013-06-25 14:52:00,88.9,74.7,29.85,WSW,242,5.0,10.0,63,0.00,,,0.00,meteohub,2013-06-25 18:52:00,
2013-06-25 14:57:00,88.5,73.4,29.85,WSW,255,1.0,11.0,61,0.00,,,0.00,meteohub,2013-06-25 18:57:00,
2013-06-25 15:02:00,88.9,73.8,29.85,WNW,284,6.0,11.0,61,0.00,,,0.00,meteohub,2013-06-25 19:02:00,
2013-06-25 15:07:00,89.1,73.9,29.85,West,281,11.0,14.0,61,0.00,,,0.00,meteohub,2013-06-25 19:07:00,
2013-06-25 15:12:00,89.4,75.2,29.85,West,273,4.0,14.0,63,0.00,,,0.00,meteohub,2013-06-25 19:12:00,
2013-06-25 15:17:00,89.8,74.1,29.84,SE,134,1.0,14.0,60,0.00,,,0.00,meteohub,2013-06-25 19:17:00,
2013-06-25 15:22:00,89.4,73.8,29.84,WSW,245,6.0,14.0,60,0.00,,,0.00,meteohub,2013-06-25 19:22:00,
2013-06-25 15:27:00,89.2,74.5,29.84,NW,306,3.0,14.0,62,0.00,,,0.00,meteohub,2013-06-25 19:27:00,
2013-06-25 15:32:00,89.2,74.5,29.84,NNE,20,2.0,14.0,62,0.00,,,0.00,meteohub,2013-06-25 19:32:00,
2013-06-25 15:37:00,89.8,73.6,29.84,WNW,287,4.0,12.0,59,0.00,,,0.00,meteohub,2013-06-25 19:37:00,
2013-06-25 15:42:00,90.3,74.1,29.83,WSW,250,8.0,12.0,59,0.00,,,0.00,meteohub,2013-06-25 19:42:00,
2013-06-25 15:47:00,89.8,73.6,29.83,West,260,9.0,12.0,59,0.00,,,0.00,meteohub,2013-06-25 19:47:00,
2013-06-25 15:52:00,89.2,73.9,29.83,West,271,2.0,12.0,61,0.00,,,0.00,meteohub,2013-06-25 19:52:00,
2013-06-25 15:57:00,89.2,73.9,29.83,WSW,240,8.0,12.0,61,0.00,,,0.00,meteohub,2013-06-25 19:57:00,
2013-06-25 16:02:00,89.2,74.5,29.83,West,281,6.0,12.0,62,0.00,,,0.00,meteohub,2013-06-25 20:02:00,
2013-06-25 16:07:00,90.1,74.3,29.83,SSW,200,4.0,12.0,60,0.00,,,0.00,meteohub,2013-06-25 20:07:00,
2013-06-25 16:12:00,90.0,74.1,29.82,WNW,302,10.0,12.0,60,0.00,,,0.00,meteohub,2013-06-25 20:12:00,
2013-06-25 16:17:00,90.0,74.1,29.82,South,179,8.0,13.0,60,0.00,,,0.00,meteohub,2013-06-25 20:17:00,
2013-06-25 16:22:00,90.5,73.8,29.82,WSW,254,5.0,13.0,58,0.00,,,0.00,meteohub,2013-06-25 20:22:00,
2013-06-25 16:27:00,90.1,73.9,29.82,West,273,4.0,13.0,59,0.00,,,0.00,meteohub,2013-06-25 20:27:00,
2013-06-25 16:32:00,90.7,74.8,29.81,SW,228,6.0,11.0,60,0.00,,,0.00,meteohub,2013-06-25 20:32:00,
2013-06-25 16:37:00,90.7,73.4,29.81,WNW,290,6.0,10.0,57,0.00,,,0.00,meteohub,2013-06-25 20:37:00,
2013-06-25 16:42:00,90.3,72.5,29.81,WNW,293,10.0,12.0,56,0.00,,,0.00,meteohub,2013-06-25 20:42:00,
2013-06-25 16:47:00,90.3,73.6,29.81,SW,222,6.0,12.0,58,0.00,,,0.00,meteohub,2013-06-25 20:47:00,
2013-06-25 16:52:00,90.1,73.4,29.81,WSW,253,6.0,12.0,58,0.00,,,0.00,meteohub,2013-06-25 20:52:00,
2013-06-25 16:57:00,89.8,73.6,29.81,West,262,4.0,12.0,59,0.00,,,0.00,meteohub,2013-06-25 20:57:00,
2013-06-25 17:02:00,89.8,73.6,29.81,WNW,297,7.0,13.0,59,0.00,,,0.00,meteohub,2013-06-25 21:02:00,
2013-06-25 17:07:00,90.0,73.8,29.80,WSW,253,4.0,13.0,59,0.00,,,0.00,meteohub,2013-06-25 21:07:00,
2013-06-25 17:12:00,90.0,73.8,29.80,West,266,3.0,13.0,59,0.00,,,0.00,meteohub,2013-06-25 21:12:00,
2013-06-25 17:17:00,89.8,73.6,29.80,West,264,5.0,13.0,59,0.00,,,0.00,meteohub,2013-06-25 21:17:00,
2013-06-25 17:22:00,89.4,73.2,29.80,West,281,2.0,11.0,59,0.00,,,0.00,meteohub,2013-06-25 21:22:00,
2013-06-25 17:27:00,89.4,73.8,29.79,WSW,243,6.0,11.0,60,0.00,,,0.00,meteohub,2013-06-25 21:27:00,
2013-06-25 17:32:00,89.6,73.9,29.80,WSW,239,3.0,11.0,60,0.00,,,0.00,meteohub,2013-06-25 21:32:00,
2013-06-25 17:37:00,89.8,73.6,29.80,South,190,5.0,11.0,59,0.00,,,0.00,meteohub,2013-06-25 21:37:00,
2013-06-25 17:42:00,89.8,74.1,29.79,WSW,256,5.0,10.0,60,0.00,,,0.00,meteohub,2013-06-25 21:42:00,
2013-06-25 17:47:00,89.8,74.1,29.79,WSW,245,1.0,10.0,60,0.00,,,0.00,meteohub,2013-06-25 21:47:00,
2013-06-25 17:52:00,89.8,74.1,29.79,WSW,250,1.0,10.0,60,0.00,,,0.00,meteohub,2013-06-25 21:52:00,
2013-06-25 17:57:00,89.6,73.9,29.79,SW,215,3.0,10.0,60,0.00,,,0.00,meteohub,2013-06-25 21:57:00,
2013-06-25 18:02:00,89.6,74.8,29.78,SSE,148,2.0,8.0,62,0.00,,,0.00,meteohub,2013-06-25 22:02:00,
2013-06-25 18:07:00,89.4,75.2,29.78,South,169,1.0,6.0,63,0.00,,,0.00,meteohub,2013-06-25 22:07:00,
2013-06-25 18:12:00,89.4,75.2,29.78,SSE,153,2.0,5.0,63,0.00,,,0.00,meteohub,2013-06-25 22:12:00,
2013-06-25 18:17:00,89.4,76.1,29.78,SSE,158,1.0,5.0,65,0.00,,,0.00,meteohub,2013-06-25 22:17:00,
2013-06-25 18:22:00,89.6,75.4,29.78,SSW,200,1.0,4.0,63,0.00,,,0.00,meteohub,2013-06-25 22:22:00,
2013-06-25 18:27:00,90.1,75.4,29.77,SE,139,1.0,3.0,62,0.00,,,0.00,meteohub,2013-06-25 22:27:00,
2013-06-25 18:32:00,90.9,75.0,29.77,South,180,2.0,4.0,60,0.00,,,0.00,meteohub,2013-06-25 22:32:00,
2013-06-25 18:37:00,90.5,74.1,29.77,NE,39,2.0,6.0,59,0.00,,,0.00,meteohub,2013-06-25 22:37:00,
2013-06-25 18:42:00,90.3,74.5,29.77,SSW,203,3.0,6.0,60,0.00,,,0.00,meteohub,2013-06-25 22:42:00,
2013-06-25 18:47:00,90.0,74.1,29.77,West,266,1.0,7.0,60,0.00,,,0.00,meteohub,2013-06-25 22:47:00,
2013-06-25 18:52:00,89.2,73.6,29.77,SW,235,1.0,7.0,60,0.00,,,0.00,meteohub,2013-06-25 22:52:00,
2013-06-25 18:57:00,89.1,73.9,29.77,NE,54,0.0,8.0,61,0.00,,,0.00,meteohub,2013-06-25 22:57:00,
2013-06-25 19:02:00,89.1,74.8,29.77,SE,141,1.0,8.0,63,0.00,,,0.00,meteohub,2013-06-25 23:02:00,
2013-06-25 19:07:00,89.6,74.3,29.77,SE,146,0.0,8.0,61,0.00,,,0.00,meteohub,2013-06-25 23:07:00,
2013-06-25 19:12:00,90.0,74.7,29.76,SSE,150,1.0,4.0,61,0.00,,,0.00,meteohub,2013-06-25 23:12:00,
2013-06-25 19:17:00,89.6,75.4,29.76,SSE,160,1.0,4.0,63,0.00,,,0.00,meteohub,2013-06-25 23:17:00,
2013-06-25 19:22:00,89.2,74.5,29.76,WSW,255,4.0,4.0,62,0.00,,,0.00,meteohub,2013-06-25 23:22:00,
2013-06-25 19:27:00,89.1,75.7,29.77,SSE,155,0.0,4.0,65,0.00,,,0.00,meteohub,2013-06-25 23:27:00,
2013-06-25 19:32:00,88.3,76.8,29.77,SSE,150,0.0,4.0,69,0.00,,,0.00,meteohub,2013-06-25 23:32:00,
2013-06-25 19:37:00,87.4,76.5,29.76,SE,146,1.0,4.0,70,0.00,,,0.00,meteohub,2013-06-25 23:37:00,
2013-06-25 19:42:00,86.5,75.9,29.76,SSE,160,0.0,4.0,71,0.00,,,0.00,meteohub,2013-06-25 23:42:00,
2013-06-25 19:47:00,86.5,77.2,29.76,SSE,155,0.0,3.0,74,0.00,,,0.00,meteohub,2013-06-25 23:47:00,
2013-06-25 19:52:00,86.2,76.5,29.76,SSE,149,2.0,3.0,73,0.00,,,0.00,meteohub,2013-06-25 23:52:00,
2013-06-25 19:57:00,85.8,76.6,29.76,SSE,160,2.0,2.0,74,0.00,,,0.00,meteohub,2013-06-25 23:57:00,
2013-06-25 20:02:00,85.5,76.3,29.76,SSE,152,2.0,3.0,74,0.00,,,0.00,meteohub,2013-06-26 00:02:00,
2013-06-25 20:07:00,84.2,75.4,29.76,SSE,156,3.0,3.0,75,0.00,,,0.00,meteohub,2013-06-26 00:07:00,
2013-06-25 20:12:00,83.5,75.0,29.76,SSE,148,3.0,3.0,76,0.00,,,0.00,meteohub,2013-06-26 00:12:00,
2013-06-25 20:17:00,83.1,74.3,29.75,SSE,160,3.0,4.0,75,0.00,,,0.00,meteohub,2013-06-26 00:17:00,
2013-06-25 20:22:00,82.8,73.9,29.75,SSE,159,3.0,4.0,75,0.00,,,0.00,meteohub,2013-06-26 00:22:00,
2013-06-25 20:27:00,82.4,74.8,29.75,SSE,158,3.0,4.0,78,0.00,,,0.00,meteohub,2013-06-26 00:27:00,
2013-06-25 20:32:00,81.3,74.1,29.76,SSE,149,1.0,4.0,79,0.00,,,0.00,meteohub,2013-06-26 00:32:00,
2013-06-25 20:37:00,81.0,73.8,29.76,SSE,160,0.0,4.0,79,0.00,,,0.00,meteohub,2013-06-26 00:37:00,
2013-06-25 20:42:00,81.0,73.8,29.76,SW,219,0.0,4.0,79,0.00,,,0.00,meteohub,2013-06-26 00:42:00,
2013-06-25 20:47:00,80.8,73.9,29.75,SSE,160,1.0,3.0,80,0.00,,,0.00,meteohub,2013-06-26 00:47:00,
2013-06-25 20:52:00,80.2,73.9,29.75,SSW,197,1.0,4.0,81,0.00,,,0.00,meteohub,2013-06-26 00:52:00,
2013-06-25 20:57:00,80.1,74.1,29.75,SSE,158,0.0,4.0,82,0.00,,,0.00,meteohub,2013-06-26 00:57:00,
2013-06-25 21:02:00,79.9,73.9,29.75,SSE,155,3.0,4.0,82,0.00,,,0.00,meteohub,2013-06-26 01:02:00,
2013-06-25 21:07:00,80.1,73.4,29.75,SE,140,1.0,4.0,80,0.00,,,0.00,meteohub,2013-06-26 01:07:00,
2013-06-25 21:12:00,80.1,73.4,29.75,SW,226,1.0,4.0,80,0.00,,,0.00,meteohub,2013-06-26 01:12:00,
2013-06-25 21:17:00,80.1,73.4,29.76,SW,229,2.0,4.0,80,0.00,,,0.00,meteohub,2013-06-26 01:17:00,
2013-06-25 21:22:00,79.5,73.6,29.76,SW,221,1.0,3.0,82,0.00,,,0.00,meteohub,2013-06-26 01:22:00,
2013-06-25 21:27:00,79.2,73.9,29.77,WNW,284,2.0,3.0,84,0.00,,,0.00,meteohub,2013-06-26 01:27:00,
2013-06-25 21:32:00,79.2,73.9,29.77,SW,220,1.0,3.0,84,0.00,,,0.00,meteohub,2013-06-26 01:32:00,
2013-06-25 21:37:00,78.6,73.8,29.77,SSW,198,1.0,3.0,85,0.00,,,0.00,meteohub,2013-06-26 01:37:00,
2013-06-25 21:42:00,78.3,73.0,29.78,SW,218,1.0,3.0,84,0.00,,,0.00,meteohub,2013-06-26 01:42:00,
2013-06-25 21:47:00,78.1,73.2,29.78,SW,218,0.0,2.0,85,0.00,,,0.00,meteohub,2013-06-26 01:47:00,
2013-06-25 21:52:00,77.9,73.4,29.78,SW,218,0.0,1.0,86,0.00,,,0.00,meteohub,2013-06-26 01:52:00,
2013-06-25 21:57:00,77.9,73.4,29.78,SW,218,0.0,1.0,86,0.00,,,0.00,meteohub,2013-06-26 01:57:00,
2013-06-25 22:02:00,77.5,73.0,29.78,South,186,0.0,0.0,86,0.00,,,0.00,meteohub,2013-06-26 02:02:00,
2013-06-25 22:07:00,77.5,73.8,29.78,SSW,205,0.0,0.0,88,0.00,,,0.00,meteohub,2013-06-26 02:07:00,
2013-06-25 22:12:00,77.4,73.2,29.78,SW,219,0.0,0.0,87,0.00,,,0.00,meteohub,2013-06-26 02:12:00,
2013-06-25 22:17:00,77.2,73.0,29.78,SW,217,0.0,0.0,87,0.00,,,0.00,meteohub,2013-06-26 02:17:00,
2013-06-25 22:22:00,76.8,73.0,29.77,SW,216,0.0,0.0,88,0.00,,,0.00,meteohub,2013-06-26 02:22:00,
2013-06-25 22:27:00,76.6,73.2,29.77,SW,217,0.0,0.0,89,0.00,,,0.00,meteohub,2013-06-26 02:27:00,
2013-06-25 22:32:00,76.5,73.0,29.77,SW,228,0.0,0.0,89,0.00,,,0.00,meteohub,2013-06-26 02:32:00,
2013-06-25 22:37:00,76.6,73.2,29.77,SSW,200,0.0,0.0,89,0.00,,,0.00,meteohub,2013-06-26 02:37:00,
2013-06-25 22:42:00,76.8,73.0,29.77,SW,219,0.0,0.0,88,0.00,,,0.00,meteohub,2013-06-26 02:42:00,
2013-06-25 22:47:00,77.5,73.4,29.77,South,176,0.0,1.0,87,0.00,,,0.00,meteohub,2013-06-26 02:47:00,
2013-06-25 22:52:00,78.6,73.0,29.77,SSE,153,0.0,4.0,83,0.00,,,0.00,meteohub,2013-06-26 02:52:00,
2013-06-25 22:57:00,78.8,73.2,29.77,SW,214,1.0,4.0,83,0.00,,,0.00,meteohub,2013-06-26 02:57:00,
2013-06-25 23:02:00,78.3,73.0,29.77,SSW,211,1.0,4.0,84,0.00,,,0.00,meteohub,2013-06-26 03:02:00,
2013-06-25 23:07:00,77.7,72.9,29.77,SSW,211,0.0,3.0,85,0.00,,,0.00,meteohub,2013-06-26 03:07:00,
2013-06-25 23:12:00,77.4,72.9,29.78,SW,219,0.0,2.0,86,0.00,,,0.00,meteohub,2013-06-26 03:12:00,
2013-06-25 23:17:00,77.2,73.0,29.78,SW,218,1.0,2.0,87,0.00,,,0.00,meteohub,2013-06-26 03:17:00,
2013-06-25 23:22:00,77.0,72.9,29.78,SSW,213,0.0,2.0,87,0.00,,,0.00,meteohub,2013-06-26 03:22:00,
2013-06-25 23:27:00,76.8,73.0,29.78,SSE,167,0.0,2.0,88,0.00,,,0.00,meteohub,2013-06-26 03:27:00,
2013-06-25 23:32:00,76.8,73.0,29.79,SW,219,2.0,2.0,88,0.00,,,0.00,meteohub,2013-06-26 03:32:00,
2013-06-25 23:37:00,76.8,72.7,29.79,SW,217,2.0,2.0,87,0.00,,,0.00,meteohub,2013-06-26 03:37:00,
2013-06-25 23:42:00,77.0,72.9,29.79,SW,224,0.0,2.0,87,0.00,,,0.00,meteohub,2013-06-26 03:42:00,
2013-06-25 23:47:00,77.0,72.9,29.79,SSW,211,0.0,3.0,87,0.00,,,0.00,meteohub,2013-06-26 03:47:00,
2013-06-25 23:52:00,77.2,73.4,29.80,SSW,201,0.0,3.0,88,0.00,,,0.00,meteohub,2013-06-26 03:52:00,
2013-06-25 23:57:00,77.0,72.9,29.79,SSW,201,0.0,2.0,87,0.00,,,0.00,meteohub,2013-06-26 03:57:00,